aviador You're here:

LEAM Decoded Metar

ALMERIA in SPAIN
Report Time2017-09-25 16:30:00
UTC Time2017-09-25 16:56:52
Flight Rules vfr VFR
Wind200° at 05 kt
W.Decomp.*RWY 25: 3.3 kt HW 3.8 kt LCW
W.Rank200° ranks 4
Current wind is below 200° avg. (6.4)
Visibility9999 m
Phenomena:N/A
Clouds:N/A
Expected CloudBase > 1,200 ft AGL from Temp-Dew spread
CeilingNone
Temp23°C (ISA +8)
Dew Point20°C (83% RH)
QNH1017 hPa
Density Alt1,188 ft
Elevation69 ft
Report Wrong Elevation
Raw Report
LEAM 251630Z 20005KT 160V240 CAVOK 23/20 Q1017=

Extra information for LEAM:More info

Metar Taf Metar & Taf Last 4 Metars F.Rules Stats Wind Profile Meteogram Temp Stats Airport Information Weather charts Add Link Nearby VenuesMetar ALERT Operation Metar Decoded Social comments